Time;durP1;ratioP1;P1;durP2;ratioP2;P2;SDS_P1;SDS_P2;PMS_P1;PMS_P2;Temp;Humidity;BMP_temperature;BMP_pressure;BME280_temperature;BME280_humidity;BME280_pressure;Samples;Min_cycle;Max_cycle;Signal;HPM_P1;HPM_P2
2022/12/22 03:26:21;;;;;;;42.50;19.45;;;;;;;10.79;100.00;100186.19;2615631;36;20115;-60
2022/12/22 03:28:49;;;;;;;40.27;18.43;;;;;;;10.64;100.00;100174.25;2615654;36;20034;-59
2022/12/22 03:31:20;;;;;;;40.58;19.90;;;;;;;10.56;100.00;100169.66;2615621;36;20102;-60
2022/12/22 03:33:49;;;;;;;44.40;19.58;;;;;;;10.61;100.00;100169.19;2615672;36;20042;-59
2022/12/22 03:36:17;;;;;;;40.88;19.95;;;;;;;10.54;100.00;100177.03;2615866;36;20022;-59
2022/12/22 03:38:52;;;;;;;43.42;17.60;;;;;;;10.48;100.00;100175.81;2616891;54;20030;-58
2022/12/22 03:46:45;;;;;;;42.10;20.50;;;;;;;10.51;100.00;100170.09;2615696;36;20034;-60
2022/12/22 03:49:13;;;;;;;41.65;19.45;;;;;;;10.60;100.00;100171.03;2614805;31;20037;-60
2022/12/22 03:51:44;;;;;;;43.00;19.63;;;;;;;10.74;100.00;100168.81;2615513;36;20539;-58
2022/12/22 03:54:14;;;;;;;47.05;18.73;;;;;;;10.70;100.00;100168.25;2616427;36;20710;-60
2022/12/22 03:56:43;;;;;;;42.95;18.40;;;;;;;10.72;100.00;100170.78;2615688;36;20031;-59
2022/12/22 03:59:12;;;;;;;42.22;18.90;;;;;;;10.67;100.00;100163.19;2615922;36;20034;-59
2022/12/22 04:01:45;;;;;;;36.40;17.58;;;;;;;10.61;100.00;100169.19;2608083;36;20049;-59
2022/12/22 04:04:15;;;;;;;41.45;17.30;;;;;;;10.65;100.00;100163.34;2614570;36;20038;-59
2022/12/22 04:06:44;;;;;;;40.58;18.52;;;;;;;10.67;100.00;100168.56;2616635;36;20436;-59
2022/12/22 04:09:12;;;;;;;43.58;18.67;;;;;;;10.77;100.00;100158.56;2616285;36;20057;-60
2022/12/22 04:14:22;;;;;;;40.65;17.63;;;;;;;10.55;100.00;100159.03;2616038;31;20397;-58
2022/12/22 04:16:53;;;;;;;38.40;16.63;;;;;;;10.58;100.00;100164.94;2615697;36;20061;-59
2022/12/22 04:19:23;;;;;;;41.05;18.73;;;;;;;10.58;100.00;100158.72;2615523;36;20037;-59
2022/12/22 04:21:52;;;;;;;38.03;17.13;;;;;;;10.65;100.00;100160.66;2615952;36;20023;-59
2022/12/22 04:24:21;;;;;;;40.72;17.30;;;;;;;10.62;100.00;100152.88;2616107;31;20053;-59
2022/12/22 04:26:49;;;;;;;38.95;17.08;;;;;;;10.74;100.00;100153.50;2615842;36;20027;-59
2022/12/22 04:29:18;;;;;;;39.55;18.60;;;;;;;10.67;100.00;100157.78;2615822;36;20041;-58
2022/12/22 04:31:50;;;;;;;46.05;17.73;;;;;;;10.76;100.00;100162.28;2615748;36;20027;-59
2022/12/22 04:34:21;;;;;;;40.10;17.90;;;;;;;10.67;100.00;100160.50;2615389;36;20403;-59
2022/12/22 04:36:49;;;;;;;36.30;16.70;;;;;;;10.70;100.00;100160.19;2614710;36;20030;-60
2022/12/22 04:39:17;;;;;;;36.63;18.20;;;;;;;10.74;100.00;100161.56;2615166;36;20038;-59
2022/12/22 04:41:46;;;;;;;40.83;17.67;;;;;;;10.72;100.00;100165.41;2615667;36;20035;-59
2022/12/22 04:44:14;;;;;;;38.13;17.33;;;;;;;10.79;100.00;100161.09;2615355;36;20412;-58
2022/12/22 04:46:42;;;;;;;36.25;18.63;;;;;;;10.67;100.00;100163.19;2615861;36;20030;-59
2022/12/22 04:49:11;;;;;;;42.55;18.35;;;;;;;10.86;100.00;100157.66;2614826;36;20038;-59
2022/12/22 04:51:42;;;;;;;37.88;17.42;;;;;;;10.89;100.00;100161.03;2615689;31;20038;-59
2022/12/22 04:54:10;;;;;;;36.50;17.25;;;;;;;10.77;100.00;100172.03;2615328;36;20035;-58
2022/12/22 04:56:39;;;;;;;35.17;17.73;;;;;;;10.73;100.00;100172.50;2615938;36;20605;-59
2022/12/22 04:59:07;;;;;;;37.10;17.77;;;;;;;10.79;100.00;100188.88;2615369;31;20041;-58
2022/12/22 05:01:35;;;;;;;38.70;18.15;;;;;;;10.72;100.00;100182.41;2615454;36;20034;-60
2022/12/22 05:04:04;;;;;;;36.95;18.05;;;;;;;10.65;100.00;100181.34;2614551;36;20057;-59
2022/12/22 05:06:32;;;;;;;35.10;16.80;;;;;;;10.55;100.00;100175.19;2615635;36;20038;-58
2022/12/22 05:09:03;;;;;;;43.42;19.08;;;;;;;10.65;100.00;100176.78;2614684;36;20311;-59
2022/12/22 05:11:32;;;;;;;37.40;17.52;;;;;;;10.68;100.00;100172.97;2608986;36;20041;-59
2022/12/22 05:14:00;;;;;;;34.17;16.88;;;;;;;10.72;100.00;100179.72;2615339;36;20038;-59
2022/12/22 05:16:28;;;;;;;38.50;18.50;;;;;;;10.82;100.00;100172.41;2615296;36;20031;-59
2022/12/22 05:18:57;;;;;;;38.53;16.35;;;;;;;10.69;100.00;100166.59;2614766;36;20030;-59
2022/12/22 05:21:25;;;;;;;35.40;17.20;;;;;;;10.65;100.00;100170.56;2608445;36;23264;-59
2022/12/22 05:23:53;;;;;;;34.25;16.02;;;;;;;10.59;100.00;100174.72;2615377;36;20041;-59
2022/12/22 05:26:24;;;;;;;39.00;16.77;;;;;;;10.57;100.00;100175.88;2613924;36;20035;-60
2022/12/22 05:28:52;;;;;;;32.78;15.90;;;;;;;10.63;100.00;100180.63;2615550;36;20026;-61
2022/12/22 05:31:23;;;;;;;37.50;16.85;;;;;;;10.55;100.00;100194.03;2615476;36;20038;-60
2022/12/22 05:33:51;;;;;;;37.75;15.80;;;;;;;10.60;100.00;100192.56;2615248;36;20038;-60
2022/12/22 05:36:20;;;;;;;39.30;16.97;;;;;;;10.61;100.00;100196.94;2614993;31;20057;-61
2022/12/22 05:38:48;;;;;;;38.75;15.90;;;;;;;10.67;100.00;100187.41;2615702;36;20299;-61
2022/12/22 05:41:17;;;;;;;47.53;16.00;;;;;;;10.54;100.00;100195.00;2615568;36;20041;-61
2022/12/22 05:43:48;;;;;;;43.47;17.13;;;;;;;10.47;100.00;100194.78;2615976;36;20035;-61
2022/12/22 05:46:16;;;;;;;40.65;16.73;;;;;;;10.48;100.00;100205.41;2614451;36;20035;-61
2022/12/22 05:48:44;;;;;;;51.13;17.20;;;;;;;10.49;100.00;100201.69;2615190;36;20038;-61
2022/12/22 05:51:13;;;;;;;66.55;17.85;;;;;;;10.59;100.00;100208.88;2615688;36;20559;-60
2022/12/22 05:53:42;;;;;;;108.60;17.23;;;;;;;10.45;100.00;100202.16;2615885;36;20026;-61
2022/12/22 05:56:10;;;;;;;39.85;14.82;;;;;;;10.36;100.00;100203.06;2615572;31;20035;-61
2022/12/22 05:58:40;;;;;;;39.37;13.97;;;;;;;10.38;100.00;100201.06;2615816;36;20030;-61
2022/12/22 06:01:11;;;;;;;47.35;15.98;;;;;;;10.25;100.00;100202.25;2614325;36;20129;-60
2022/12/22 06:03:39;;;;;;;46.30;16.83;;;;;;;10.20;100.00;100203.69;2614842;36;20037;-60
2022/12/22 06:06:08;;;;;;;45.40;17.47;;;;;;;10.26;100.00;100197.69;2615440;36;21239;-60
2022/12/22 06:08:36;;;;;;;52.35;17.67;;;;;;;10.26;100.00;100195.00;2615375;36;20038;-60
2022/12/22 06:11:05;;;;;;;48.85;16.25;;;;;;;10.24;100.00;100195.16;2613783;36;20443;-60
2022/12/22 06:13:33;;;;;;;44.17;16.67;;;;;;;10.26;100.00;100192.31;2615215;36;20027;-60
2022/12/22 06:16:02;;;;;;;53.13;17.75;;;;;;;10.20;100.00;100201.81;2615311;36;20510;-60
2022/12/22 06:18:33;;;;;;;49.70;17.93;;;;;;;10.13;100.00;100188.16;2615375;36;20038;-60
2022/12/22 06:21:01;;;;;;;59.88;18.52;;;;;;;10.15;100.00;100186.16;2614590;36;20030;-61
2022/12/22 06:23:29;;;;;;;53.20;18.70;;;;;;;10.20;100.00;100188.38;2609150;36;20562;-59
2022/12/22 06:25:59;;;;;;;59.08;18.27;;;;;;;10.24;100.00;100192.47;2608934;31;20302;-61
2022/12/22 06:28:28;;;;;;;59.65;19.25;;;;;;;10.30;100.00;100193.72;2615707;36;20035;-59
2022/12/22 06:30:57;;;;;;;54.92;19.42;;;;;;;10.27;100.00;100204.78;2614995;36;20042;-59
2022/12/22 06:33:25;;;;;;;57.67;19.73;;;;;;;10.37;100.00;100216.34;2614944;36;20042;-60
2022/12/22 06:35:56;;;;;;;57.63;19.60;;;;;;;10.37;100.00;100220.91;2615127;36;20057;-60
2022/12/22 06:38:25;;;;;;;58.50;20.60;;;;;;;10.15;100.00;100218.41;2615661;36;20034;-61
2022/12/22 06:40:53;;;;;;;62.13;20.63;;;;;;;10.10;100.00;100230.59;2615444;36;20034;-60
2022/12/22 06:43:19;;;;;;;53.38;18.73;;;;;;;10.08;100.00;100244.19;2615724;36;20034;-60
2022/12/22 06:45:47;;;;;;;54.75;19.45;;;;;;;10.04;100.00;100248.22;2615167;36;20130;-59
2022/12/22 06:48:16;;;;;;;50.78;17.73;;;;;;;9.87;100.00;100251.66;2613491;36;20034;-60
2022/12/22 06:50:44;;;;;;;65.97;20.35;;;;;;;9.78;100.00;100248.00;2615537;36;20431;-61
2022/12/22 06:53:15;;;;;;;61.50;21.08;;;;;;;9.80;100.00;100263.00;2613836;36;20030;-60
2022/12/22 06:55:43;;;;;;;53.83;19.33;;;;;;;9.78;100.00;100264.97;2615078;36;20042;-60
2022/12/22 06:58:12;;;;;;;58.05;20.27;;;;;;;9.73;100.00;100269.09;2615652;36;20543;-60
2022/12/22 07:00:40;;;;;;;58.57;21.77;;;;;;;9.65;100.00;100269.81;2615364;36;20022;-60
2022/12/22 07:03:08;;;;;;;55.42;21.42;;;;;;;9.63;100.00;100282.56;2614841;36;20574;-61
2022/12/22 07:05:37;;;;;;;60.53;22.55;;;;;;;9.49;100.00;100285.69;2614724;36;20034;-61
2022/12/22 07:08:05;;;;;;;63.88;22.15;;;;;;;9.62;100.00;100283.53;2613469;36;20038;-60
2022/12/22 07:13:23;;;;;;;60.25;21.08;;;;;;;9.71;100.00;100279.16;2615321;36;20030;-60
2022/12/22 07:15:52;;;;;;;54.78;19.00;;;;;;;9.59;100.00;100289.22;2615930;36;20035;-60
2022/12/22 07:18:20;;;;;;;;;;;;;;;9.54;100.00;100289.63;2615160;36;20039;-60
2022/12/22 07:20:49;;;;;;;55.50;19.30;;;;;;;9.49;100.00;100285.69;2615804;36;20424;-60
2022/12/22 07:23:17;;;;;;;50.00;19.25;;;;;;;9.47;100.00;100293.88;2615143;36;20034;-60
2022/12/22 07:25:48;;;;;;;54.50;21.07;;;;;;;9.38;100.00;100292.91;2608606;36;20042;-59
2022/12/22 07:28:17;;;;;;;52.17;19.40;;;;;;;9.31;100.00;100301.69;2614799;36;20030;-60
2022/12/22 07:30:45;;;;;;;50.72;18.83;;;;;;;9.22;100.00;100300.69;2615276;36;20558;-60
2022/12/22 07:33:13;;;;;;;45.42;17.75;;;;;;;9.19;100.00;100300.97;2608459;36;20038;-59
2022/12/22 07:35:42;;;;;;;48.40;18.92;;;;;;;9.07;100.00;100308.31;2613900;36;20433;-59
2022/12/22 07:38:10;;;;;;;55.00;18.38;;;;;;;9.00;100.00;100313.38;2610815;36;20547;-60
2022/12/22 07:40:38;;;;;;;41.90;17.38;;;;;;;8.93;100.00;100315.75;2615128;36;20061;-60
2022/12/22 07:43:07;;;;;;;39.38;15.43;;;;;;;8.94;100.00;100322.00;2615742;36;20514;-60
2022/12/22 07:45:41;;;;;;;36.85;15.98;;;;;;;8.88;100.00;100330.59;2616739;36;20022;-59
2022/12/22 07:50:50;;;;;;;40.75;15.93;;;;;;;9.05;100.00;100327.22;2616394;36;20034;-60
2022/12/22 07:53:18;;;;;;;41.55;18.10;;;;;;;9.09;100.00;100336.69;2615941;36;20029;-58
2022/12/22 07:55:47;;;;;;;47.38;16.70;;;;;;;9.12;100.00;100339.09;2615297;31;20042;-59
2022/12/22 07:58:17;;;;;;;45.78;17.33;;;;;;;9.21;100.00;100341.94;2616617;31;20042;-59
2022/12/22 08:00:46;;;;;;;49.70;18.10;;;;;;;9.30;100.00;100351.84;2616171;31;20034;-59
2022/12/22 08:03:14;;;;;;;55.53;19.93;;;;;;;9.34;100.00;100345.19;2615706;36;20555;-60
2022/12/22 08:05:44;;;;;;;61.50;20.42;;;;;;;9.37;100.00;100352.97;2616616;36;20034;-59
2022/12/22 08:08:12;;;;;;;60.38;20.13;;;;;;;9.43;100.00;100356.94;2615625;36;20033;-59
2022/12/22 08:10:41;;;;;;;54.95;18.25;;;;;;;9.44;100.00;100359.47;2616044;36;20030;-60
2022/12/22 08:13:09;;;;;;;56.83;21.10;;;;;;;9.38;100.00;100359.19;2616120;36;20714;-60
2022/12/22 08:15:40;;;;;;;60.40;20.08;;;;;;;9.41;100.00;100358.94;2616101;31;20559;-59
2022/12/22 08:18:08;;;;;;;54.45;19.55;;;;;;;9.30;100.00;100365.25;2615928;36;20035;-60
2022/12/22 08:20:37;;;;;;;55.03;20.00;;;;;;;9.36;100.00;100361.16;2616601;31;20022;-58
2022/12/22 08:23:05;;;;;;;53.40;19.98;;;;;;;9.40;100.00;100371.50;2617325;36;20038;-59
2022/12/22 08:25:35;;;;;;;57.40;19.83;;;;;;;9.41;100.00;100370.50;2616407;36;20023;-58
2022/12/22 08:28:04;;;;;;;60.72;21.83;;;;;;;9.50;100.00;100373.34;2615880;36;20035;-59
2022/12/22 08:30:34;;;;;;;55.95;21.15;;;;;;;9.53;100.00;100373.06;2615612;36;20416;-59
2022/12/22 08:33:05;;;;;;;51.78;19.35;;;;;;;9.48;100.00;100381.53;2608951;36;20038;-60
2022/12/22 08:35:33;;;;;;;62.83;20.25;;;;;;;9.43;100.00;100394.53;2615622;36;20037;-60
2022/12/22 08:38:02;;;;;;;55.70;19.63;;;;;;;9.38;100.00;100396.78;2615150;36;20057;-60
2022/12/22 08:40:33;;;;;;;56.05;18.92;;;;;;;9.44;100.00;100393.56;2615312;31;20026;-60
2022/12/22 08:43:05;;;;;;;51.70;19.15;;;;;;;9.41;100.00;100399.22;2608973;36;20034;-60
2022/12/22 08:45:34;;;;;;;57.00;19.75;;;;;;;9.38;100.00;100402.16;2615221;36;20041;-59
2022/12/22 08:48:05;;;;;;;59.83;19.27;;;;;;;9.29;100.00;100399.34;2615419;36;20543;-60
2022/12/22 08:50:33;;;;;;;50.65;16.95;;;;;;;9.07;100.00;100399.59;2613674;36;20038;-60
2022/12/22 08:53:04;;;;;;;48.08;16.00;;;;;;;9.07;100.00;100405.78;2613917;31;20034;-60
2022/12/22 08:55:32;;;;;;;51.70;19.60;;;;;;;8.92;100.00;100417.88;2613835;36;20141;-60
2022/12/22 08:58:01;;;;;;;41.78;17.30;;;;;;;8.92;100.00;100425.94;2613731;31;20038;-60
2022/12/22 09:00:29;;;;;;;51.92;17.92;;;;;;;8.89;100.00;100429.75;2614676;36;20569;-59
2022/12/22 09:02:57;;;;;;;41.70;15.75;;;;;;;8.79;100.00;100438.75;2614021;36;20034;-59
2022/12/22 09:05:28;;;;;;;43.72;15.23;;;;;;;8.77;100.00;100437.06;2615200;36;20547;-59
2022/12/22 09:07:57;;;;;;;46.92;15.32;;;;;;;8.56;100.00;100445.13;2615430;36;20034;-60
2022/12/22 09:10:25;;;;;;;51.83;15.87;;;;;;;8.52;100.00;100451.75;2615041;36;20542;-59
2022/12/22 09:12:53;;;;;;;48.65;14.38;;;;;;;8.51;100.00;100451.88;2615122;36;20295;-59
2022/12/22 09:15:22;;;;;;;48.03;14.32;;;;;;;8.50;100.00;100450.19;2615996;31;20035;-58
2022/12/22 09:17:50;;;;;;;52.73;14.33;;;;;;;8.48;100.00;100446.78;2614938;36;20053;-60
2022/12/22 09:20:19;;;;;;;46.45;13.88;;;;;;;8.42;100.00;100451.69;2614971;36;20030;-59
2022/12/22 09:22:50;;;;;;;46.38;14.00;;;;;;;8.52;100.00;100451.75;2616281;36;20392;-59
2022/12/22 09:25:19;;;;;;;41.97;13.60;;;;;;;8.56;100.00;100455.03;2615857;36;20031;-59
2022/12/22 09:27:47;;;;;;;48.20;13.63;;;;;;;8.45;100.00;100457.78;2615309;36;20086;-59
2022/12/22 09:30:16;;;;;;;44.92;14.98;;;;;;;8.51;100.00;100459.94;2615715;36;20038;-60
2022/12/22 09:32:44;;;;;;;53.55;14.32;;;;;;;8.38;100.00;100474.38;2615647;36;20419;-59
2022/12/22 09:35:13;;;;;;;47.33;15.07;;;;;;;8.46;100.00;100476.41;2615654;36;20034;-60
2022/12/22 09:37:41;;;;;;;55.53;16.25;;;;;;;8.61;100.00;100476.09;2615825;31;20022;-60
2022/12/22 09:40:13;;;;;;;61.70;17.73;;;;;;;8.58;100.00;100467.34;2615547;31;20038;-61
2022/12/22 09:42:42;;;;;;;63.67;19.88;;;;;;;8.58;100.00;100474.50;2609540;36;20397;-60
2022/12/22 09:45:18;;;;;;;59.93;17.87;;;;;;;8.69;100.00;100481.66;2616060;36;20031;-59
2022/12/22 09:47:52;;;;;;;67.45;17.90;;;;;;;8.75;100.00;100481.94;2632944;36;20574;-59
2022/12/22 09:50:23;;;;;;;69.60;17.30;;;;;;;8.73;100.00;100491.97;2615382;36;20435;-60
2022/12/22 09:52:56;;;;;;;68.68;16.05;;;;;;;8.69;100.00;100482.50;2609619;36;20583;-59
2022/12/22 09:55:41;;;;;;;54.13;15.32;;;;;;;8.89;100.00;100483.44;2631018;36;20138;-60
2022/12/22 09:58:27;;;;;;;65.75;17.45;;;;;;;8.72;100.00;100482.22;2614852;36;20035;-59
2022/12/22 10:01:08;;;;;;;60.20;15.48;;;;;;;8.57;100.00;100479.03;2615710;36;20153;-60
2022/12/22 10:03:44;;;;;;;61.85;16.80;;;;;;;8.81;100.00;100490.47;2614660;36;20041;-59
2022/12/22 10:06:18;;;;;;;63.65;15.45;;;;;;;8.92;100.00;100491.22;2615514;36;20034;-59
2022/12/22 10:08:47;;;;;;;63.80;15.15;;;;;;;8.84;100.00;100492.88;2614977;31;20053;-58
2022/12/22 10:11:20;;;;;;;62.03;15.63;;;;;;;8.85;100.00;100487.38;2615846;31;20129;-62
2022/12/22 10:13:49;;;;;;;57.55;14.45;;;;;;;8.69;100.00;100485.16;2615568;31;20510;-59
2022/12/22 10:16:25;;;;;;;49.38;13.85;;;;;;;8.59;100.00;100481.59;2615000;36;20566;-58
2022/12/22 10:19:00;;;;;;;44.90;14.75;;;;;;;8.80;100.00;100472.66;2615495;36;20030;-59
2022/12/22 10:21:29;;;;;;;51.72;13.93;;;;;;;8.73;100.00;100489.28;2615668;36;20034;-60
2022/12/22 10:23:57;;;;;;;45.72;11.82;;;;;;;8.43;100.00;100498.09;2615591;36;20030;-59
2022/12/22 10:26:33;;;;;;;36.47;9.60;;;;;;;8.35;100.00;100496.09;2615302;36;20035;-59
2022/12/22 10:29:07;;;;;;;42.33;9.68;;;;;;;8.16;100.00;100502.16;2614483;36;20065;-60
2022/12/22 10:31:38;;;;;;;36.25;8.75;;;;;;;8.23;100.00;100497.97;2615063;36;20121;-59
2022/12/22 10:34:15;;;;;;;26.80;9.25;;;;;;;8.28;100.00;100492.22;2615771;36;20052;-60
2022/12/22 10:36:48;;;;;;;39.53;10.73;;;;;;;8.23;100.00;100502.50;2616420;31;20126;-59
2022/12/22 10:39:22;;;;;;;25.38;8.07;;;;;;;8.29;100.00;100504.66;2616169;36;20042;-59
2022/12/22 10:41:56;;;;;;;23.35;8.27;;;;;;;8.52;100.00;100505.38;2614257;36;20174;-59
2022/12/22 10:44:27;;;;;;;33.92;9.75;;;;;;;8.65;100.00;100507.88;2614462;36;20069;-58
2022/12/22 10:46:59;;;;;;;25.60;9.60;;;;;;;8.62;100.00;100524.25;2613299;36;20038;-59
2022/12/22 10:49:31;;;;;;;32.33;9.32;;;;;;;8.58;100.00;100531.72;2614168;31;20069;-59
2022/12/22 10:52:12;;;;;;;22.85;9.00;;;;;;;8.69;100.00;100527.25;2607024;36;21976;-60
2022/12/22 10:54:43;;;;;;;33.97;10.88;;;;;;;8.89;100.00;100536.25;2614189;36;20058;-60
2022/12/22 10:57:29;;;;;;;27.35;9.68;;;;;;;8.93;100.00;100540.38;2613715;36;20057;-61
2022/12/22 10:59:59;;;;;;;29.25;10.65;;;;;;;8.96;100.00;100537.41;2613171;36;20992;-59
2022/12/22 11:02:36;;;;;;;23.88;10.38;;;;;;;9.02;100.00;100530.66;2607201;36;20073;-59
2022/12/22 11:05:08;;;;;;;25.17;9.30;;;;;;;8.96;100.00;100532.06;2615666;36;20428;-58
2022/12/22 11:07:39;;;;;;;25.73;10.27;;;;;;;8.90;100.00;100529.91;2615021;31;20061;-59
2022/12/22 11:10:24;;;;;;;26.73;11.30;;;;;;;8.99;100.00;100531.78;2615225;36;20022;-60
2022/12/22 11:13:05;;;;;;;27.30;10.10;;;;;;;9.01;100.00;100526.28;2616607;36;20415;-60
2022/12/22 11:15:41;;;;;;;22.75;9.93;;;;;;;9.19;100.00;100529.19;2616819;36;20582;-58
2022/12/22 11:18:24;;;;;;;38.17;20.38;;;;;;;9.10;100.00;100525.50;2614910;31;20030;-60
2022/12/22 11:21:00;;;;;;;28.25;11.98;;;;;;;9.21;100.00;100524.53;2615129;36;20030;-59
2022/12/22 11:23:35;;;;;;;18.92;8.77;;;;;;;9.24;100.00;100521.56;2615551;36;20666;-59
2022/12/22 11:26:13;;;;;;;27.33;9.32;;;;;;;9.42;100.00;100522.63;2615136;36;20038;-60
2022/12/22 11:29:06;;;;;;;20.05;9.40;;;;;;;9.53;100.00;100510.09;2616016;36;20125;-59
2022/12/22 11:31:53;;;;;;;26.92;9.35;;;;;;;9.52;100.00;100521.81;2615158;36;20042;-58
2022/12/22 11:34:34;;;;;;;20.83;8.90;;;;;;;9.53;100.00;100524.34;2614571;36;20035;-60
2022/12/22 11:37:16;;;;;;;21.00;8.80;;;;;;;9.74;100.00;100516.19;2614875;36;20049;-59
2022/12/22 11:39:54;;;;;;;19.90;7.95;;;;;;;9.80;100.00;100512.97;2613365;36;20035;-60
2022/12/22 11:42:47;;;;;;;22.17;8.75;;;;;;;9.84;100.00;100520.75;2615006;36;20031;-60
2022/12/22 11:45:36;;;;;;;19.45;8.07;;;;;;;9.84;100.00;100520.75;2614473;36;20356;-59
2022/12/22 11:48:17;;;;;;;20.73;8.10;;;;;;;9.86;100.00;100519.59;2615355;36;20550;-60
2022/12/22 11:50:48;;;;;;;18.90;8.07;;;;;;;9.89;100.00;100518.47;2616046;36;20038;-60
2022/12/22 11:53:41;;;;;;;19.83;8.75;;;;;;;9.96;100.00;100517.75;2615168;36;20657;-59
2022/12/22 11:56:21;;;;;;;17.63;7.65;;;;;;;9.96;100.00;100515.06;2614964;36;20038;-59
2022/12/22 11:59:10;;;;;;;17.02;6.68;;;;;;;10.09;100.00;100513.97;2614928;36;20030;-59
2022/12/22 12:01:56;;;;;;;13.32;6.38;;;;;;;10.11;100.00;100528.09;2608262;36;21301;-60
2022/12/22 12:04:41;;;;;;;16.63;7.07;;;;;;;10.31;100.00;100520.88;2607763;36;20161;-60
2022/12/22 12:07:27;;;;;;;15.70;7.20;;;;;;;10.23;100.00;100520.75;2616155;36;20339;-59
2022/12/22 12:10:05;;;;;;;13.27;6.38;;;;;;;10.11;100.00;100515.50;2615141;36;20479;-59
2022/12/22 12:12:40;;;;;;;;;;;;;;;10.27;100.00;100511.41;2616244;36;20050;-60
2022/12/22 12:15:20;;;;;;;13.05;5.20;;;;;;;10.52;100.00;100502.75;2615579;36;19953;-61
2022/12/22 12:18:08;;;;;;;8.98;4.82;;;;;;;10.44;100.00;100508.03;2615329;36;20051;-60
2022/12/22 12:20:47;;;;;;;18.48;5.93;;;;;;;10.37;100.00;100501.50;2615131;31;20035;-60
2022/12/22 12:23:21;;;;;;;;;;;;;;;10.33;100.00;100502.75;2616159;36;20038;-60
2022/12/22 12:25:59;;;;;;;8.20;4.97;;;;;;;10.21;100.00;100509.28;2615699;36;19954;-59
2022/12/22 12:28:38;;;;;;;11.63;5.27;;;;;;;10.22;100.00;100509.16;2615626;36;20034;-60
2022/12/22 12:31:09;;;;;;;15.93;5.85;;;;;;;10.17;100.00;100503.31;2615365;36;20035;-59
2022/12/22 12:33:46;;;;;;;10.90;4.55;;;;;;;10.20;100.00;100504.88;2615443;36;20555;-59
2022/12/22 12:36:21;;;;;;;11.68;4.78;;;;;;;10.18;100.00;100496.97;2616058;36;20053;-59
2022/12/22 12:38:58;;;;;;;10.45;4.85;;;;;;;10.17;100.00;100496.13;2615719;31;20041;-58
2022/12/22 12:41:33;;;;;;;12.73;6.28;;;;;;;10.14;100.00;100512.56;2615879;36;20038;-58
2022/12/22 12:44:02;;;;;;;10.00;5.15;;;;;;;10.18;100.00;100505.03;2615470;36;20085;-60
2022/12/22 12:46:55;;;;;;;15.45;5.80;;;;;;;10.23;100.00;100505.47;2615268;31;20031;-61
2022/12/22 12:49:53;;;;;;;11.35;5.40;;;;;;;10.42;100.00;100504.59;2615640;36;20027;-59
2022/12/22 12:53:13;;;;;;;13.07;5.70;;;;;;;10.47;100.00;100499.66;2616067;36;20031;-61
2022/12/22 12:55:59;;;;;;;13.73;5.88;;;;;;;10.40;100.00;100495.84;2615088;36;20023;-60
2022/12/22 12:58:51;;;;;;;14.63;6.03;;;;;;;10.43;100.00;100503.63;2615235;36;20057;-60
2022/12/22 13:01:56;;;;;;;13.60;5.95;;;;;;;10.43;100.00;100500.94;2615974;36;20034;-61
2022/12/22 13:04:57;;;;;;;15.55;6.53;;;;;;;10.33;100.00;100497.38;2607725;36;20047;-61
2022/12/22 13:07:55;;;;;;;16.15;6.95;;;;;;;10.28;100.00;100502.34;2615888;31;20623;-60
2022/12/22 13:10:26;;;;;;;11.98;6.68;;;;;;;10.42;100.00;100507.28;2608022;36;20053;-61
2022/12/22 13:12:57;;;;;;;11.27;6.80;;;;;;;10.28;100.00;100502.34;2615895;36;20472;-60
2022/12/22 13:15:34;;;;;;;12.63;6.43;;;;;;;10.32;100.00;100506.44;2615045;36;20035;-60
2022/12/22 13:18:04;;;;;;;15.98;6.63;;;;;;;10.24;100.00;100500.94;2614603;36;20039;-61
2022/12/22 13:20:35;;;;;;;14.40;6.72;;;;;;;10.34;100.00;100501.81;2614231;31;20043;-59
2022/12/22 13:23:12;;;;;;;12.40;5.78;;;;;;;10.05;100.00;100509.84;2614908;36;20034;-61
2022/12/22 13:25:46;;;;;;;10.73;5.90;;;;;;;10.05;100.00;100513.38;2611238;36;20039;-61
2022/12/22 13:28:21;;;;;;;11.25;4.97;;;;;;;9.93;100.00;100520.72;2613351;36;20034;-61
2022/12/22 13:30:50;;;;;;;12.57;5.30;;;;;;;9.92;100.00;100520.88;2613893;36;20030;-60
2022/12/22 13:33:20;;;;;;;;;;;;;;;9.92;100.00;100519.06;2613593;36;20045;-62
2022/12/22 13:35:51;;;;;;;14.73;5.40;;;;;;;10.05;100.00;100518.75;2614427;36;19953;-61
2022/12/22 13:38:30;;;;;;;8.77;4.80;;;;;;;9.84;100.00;100518.06;2613806;36;20046;-62
2022/12/22 13:41:01;;;;;;;13.43;6.55;;;;;;;9.69;100.00;100529.19;2613551;36;20412;-62
2022/12/22 13:43:36;;;;;;;15.32;7.22;;;;;;;9.56;100.00;100529.44;2614229;36;20148;-62
2022/12/22 13:46:05;;;;;;;17.55;7.50;;;;;;;9.41;100.00;100523.63;2615167;36;20442;-62
2022/12/22 13:48:39;;;;;;;16.45;9.00;;;;;;;9.26;100.00;100528.53;2614307;36;20035;-62
2022/12/22 13:51:15;;;;;;;16.65;8.30;;;;;;;9.12;100.00;100536.94;2614956;36;20026;-63
2022/12/22 13:53:46;;;;;;;20.90;9.45;;;;;;;9.05;100.00;100536.59;2613721;36;20558;-63
2022/12/22 13:56:19;;;;;;;23.58;9.98;;;;;;;9.00;100.00;100538.03;2614036;31;20049;-61
2022/12/22 13:58:57;;;;;;;21.42;9.68;;;;;;;8.69;100.00;100536.16;2613457;36;20444;-61
2022/12/22 14:01:25;;;;;;;21.30;9.55;;;;;;;8.46;100.00;100534.59;2615478;36;20404;-63
2022/12/22 14:03:57;;;;;;;26.95;10.68;;;;;;;8.53;100.00;100530.41;2613971;36;20045;-63
2022/12/22 14:06:30;;;;;;;23.95;10.63;;;;;;;8.49;100.00;100528.97;2614834;36;20030;-62
2022/12/22 14:09:15;;;;;;;22.55;9.63;;;;;;;8.72;100.00;100530.50;2607764;36;20443;-62
2022/12/22 14:11:46;;;;;;;24.45;11.07;;;;;;;8.69;100.00;100533.47;2612676;36;20038;-62
2022/12/22 14:14:20;;;;;;;25.73;11.20;;;;;;;8.59;100.00;100536.06;2612911;31;20031;-62
2022/12/22 14:16:53;;;;;;;26.25;10.70;;;;;;;8.55;100.00;100528.44;2611698;31;20146;-61
2022/12/22 14:19:23;;;;;;;25.77;11.13;;;;;;;8.57;100.00;100524.63;2607700;36;20042;-62
2022/12/22 14:22:02;;;;;;;24.25;12.07;;;;;;;8.58;100.00;100528.16;2614347;36;20045;-63
2022/12/22 14:24:34;;;;;;;27.88;11.68;;;;;;;8.63;100.00;100519.72;2614746;31;20042;-62
2022/12/22 14:27:03;;;;;;;23.38;11.30;;;;;;;8.55;100.00;100518.56;2614096;36;20030;-62
2022/12/22 14:29:35;;;;;;;;;;;;;;;8.53;100.00;100525.03;2615308;36;20030;-63
2022/12/22 14:32:04;;;;;;;27.27;11.38;;;;;;;8.54;100.00;100521.38;2614362;36;19955;-63
2022/12/22 14:34:34;;;;;;;27.30;11.10;;;;;;;8.59;100.00;100519.13;2613914;36;20562;-62
2022/12/22 14:37:03;;;;;;;23.98;11.30;;;;;;;8.58;100.00;100510.25;2615293;31;20058;-62
2022/12/22 14:39:33;;;;;;;26.85;12.52;;;;;;;8.51;100.00;100506.41;2616039;36;20090;-63
2022/12/22 14:42:04;;;;;;;30.17;12.35;;;;;;;8.53;100.00;100503.56;2615660;36;20164;-62
2022/12/22 14:44:37;;;;;;;31.73;12.52;;;;;;;8.70;100.00;100504.78;2614092;36;20034;-63
2022/12/22 14:47:25;;;;;;;30.55;12.27;;;;;;;8.76;100.00;100501.59;2615345;31;20030;-62
2022/12/22 14:49:57;;;;;;;26.98;12.10;;;;;;;8.82;100.00;100492.13;2615400;36;20027;-62
2022/12/22 14:52:34;;;;;;;28.63;12.60;;;;;;;8.68;100.00;100496.88;2616020;36;20049;-63
2022/12/22 14:55:04;;;;;;;32.25;13.73;;;;;;;8.66;100.00;100488.13;2614749;36;20031;-61
2022/12/22 14:57:38;;;;;;;31.95;12.52;;;;;;;8.69;100.00;100487.00;2615461;36;20026;-63
2022/12/22 15:00:28;;;;;;;26.98;11.90;;;;;;;8.61;100.00;100476.91;2614752;36;20081;-63
2022/12/22 15:02:58;;;;;;;27.50;11.20;;;;;;;8.56;100.00;100482.69;2614891;36;20035;-62
2022/12/22 15:05:30;;;;;;;28.98;12.60;;;;;;;8.62;100.00;100478.63;2614947;36;20041;-62
2022/12/22 15:07:59;;;;;;;28.88;12.38;;;;;;;8.67;100.00;100472.88;2614759;36;20552;-62
2022/12/22 15:10:35;;;;;;;32.63;12.88;;;;;;;8.81;100.00;100474.38;2614776;36;20034;-63
2022/12/22 15:13:07;;;;;;;30.55;12.57;;;;;;;8.89;100.00;100466.47;2614004;36;20145;-63